Time;durP1;ratioP1;P1;durP2;ratioP2;P2;SDS_P1;SDS_P2;PMS_P1;PMS_P2;Temp;Humidity;BMP_temperature;BMP_pressure;BME280_temperature;BME280_humidity;BME280_pressure;Samples;Min_cycle;Max_cycle;Signal;HPM_P1;HPM_P2
2023/04/06 00:00:17;;;;;;;4.40;3.33;;;11.40;90.20;;;;;;4973477;28;21079;-66
2023/04/06 00:02:45;;;;;;;5.77;3.50;;;11.40;90.20;;;;;;4984867;28;20451;-68
2023/04/06 00:05:14;;;;;;;4.37;3.23;;;11.40;90.20;;;;;;4979045;28;20482;-67
2023/04/06 00:07:43;;;;;;;4.67;2.97;;;11.40;90.20;;;;;;4977640;28;20502;-67
2023/04/06 00:10:11;;;;;;;5.13;4.40;;;11.40;90.40;;;;;;4995974;28;21058;-67
2023/04/06 00:12:41;;;;;;;5.03;3.17;;;11.40;90.40;;;;;;4983831;28;20446;-66
2023/04/06 00:15:10;;;;;;;3.83;3.10;;;11.40;90.40;;;;;;4991433;28;20465;-67
2023/04/06 00:17:39;;;;;;;4.70;3.90;;;11.40;90.40;;;;;;4997905;28;21069;-67
2023/04/06 00:20:08;;;;;;;3.93;3.47;;;11.40;90.10;;;;;;4983714;28;20549;-67
2023/04/06 00:22:37;;;;;;;2.83;2.50;;;11.40;90.30;;;;;;4977434;28;20955;-67
2023/04/06 00:25:06;;;;;;;4.20;3.27;;;11.40;90.90;;;;;;4980724;28;20835;-67
2023/04/06 00:27:34;;;;;;;7.40;3.67;;;11.40;90.30;;;;;;4986001;28;20440;-65
2023/04/06 00:30:05;;;;;;;4.00;3.60;;;11.40;90.30;;;;;;4975984;28;20522;-67
2023/04/06 00:32:35;;;;;;;4.00;2.90;;;11.40;90.20;;;;;;4987636;28;20464;-66
2023/04/06 00:35:04;;;;;;;4.03;3.23;;;11.40;90.30;;;;;;4984220;28;20438;-68
2023/04/06 00:37:32;;;;;;;4.33;3.20;;;11.40;90.40;;;;;;4978231;28;20453;-66
2023/04/06 00:40:01;;;;;;;3.70;3.20;;;11.30;90.30;;;;;;4977365;28;20510;-67
2023/04/06 00:42:30;;;;;;;4.47;3.20;;;11.40;90.30;;;;;;4974146;28;20814;-66
2023/04/06 00:45:00;;;;;;;3.27;2.77;;;11.30;90.30;;;;;;4987436;28;20447;-67
2023/04/06 00:47:30;;;;;;;4.03;3.63;;;11.30;90.30;;;;;;4980725;28;20498;-66
2023/04/06 00:49:59;;;;;;;4.70;3.27;;;11.30;90.30;;;;;;4984968;28;20482;-66
2023/04/06 00:52:27;;;;;;;4.27;3.30;;;11.30;90.30;;;;;;4971706;28;20432;-67
2023/04/06 00:54:56;;;;;;;4.63;3.13;;;11.30;90.30;;;;;;4982851;28;20508;-67
2023/04/06 00:57:25;;;;;;;5.37;3.73;;;11.30;90.30;;;;;;4983994;28;20495;-65
2023/04/06 00:59:57;;;;;;;4.33;2.93;;;11.30;90.30;;;;;;4979701;28;20479;-66
2023/04/06 01:02:26;;;;;;;5.13;3.57;;;11.30;90.40;;;;;;4988137;28;20969;-67
2023/04/06 01:04:57;;;;;;;5.10;3.53;;;11.30;90.30;;;;;;4984590;28;20447;-66
2023/04/06 01:07:46;;;;;;;2.90;2.60;;;11.30;90.30;;;;;;4978535;28;20629;-67
2023/04/06 01:10:25;;;;;;;3.20;2.80;;;11.30;90.40;;;;;;4986938;28;20478;-66
2023/04/06 01:12:59;;;;;;;4.70;3.27;;;11.30;90.40;;;;;;4988164;28;20442;-66
2023/04/06 01:16:00;;;;;;;5.07;3.10;;;11.30;90.30;;;;;;4965548;28;20909;-66
2023/04/06 01:18:39;;;;;;;3.60;3.20;;;11.30;90.30;;;;;;4984846;28;20443;-67
2023/04/06 01:21:17;;;;;;;3.93;3.40;;;11.30;90.30;;;;;;4980491;28;20477;-67
2023/04/06 01:24:01;;;;;;;3.53;3.10;;;11.30;90.30;;;;;;4982537;28;20894;-66
2023/04/06 01:26:41;;;;;;;3.80;3.17;;;11.30;90.30;;;;;;4994934;28;21285;-67
2023/04/06 01:29:10;;;;;;;3.50;2.90;;;11.30;90.30;;;;;;4993203;28;20482;-66
2023/04/06 01:31:39;;;;;;;3.10;2.20;;;11.20;90.30;;;;;;4980375;28;21375;-67
2023/04/06 01:34:08;;;;;;;3.87;3.07;;;11.20;90.30;;;;;;4997945;28;20498;-67
2023/04/06 01:36:37;;;;;;;4.43;3.33;;;11.20;90.30;;;;;;5008819;28;20472;-68
2023/04/06 01:39:22;;;;;;;3.67;2.83;;;11.30;90.30;;;;;;4987989;28;20477;-67
2023/04/06 01:41:51;;;;;;;3.67;2.83;;;11.20;90.30;;;;;;5004398;28;20493;-66
2023/04/06 01:44:22;;;;;;;3.80;3.07;;;11.20;90.40;;;;;;4987647;28;20489;-66
2023/04/06 01:47:01;;;;;;;2.87;2.53;;;11.20;90.30;;;;;;4982436;28;20479;-67
2023/04/06 01:49:30;;;;;;;4.20;2.83;;;11.20;90.40;;;;;;4978212;28;20474;-66
2023/04/06 01:51:59;;;;;;;4.00;3.07;;;11.20;90.30;;;;;;4978341;28;21007;-67
2023/04/06 01:54:29;;;;;;;4.47;2.90;;;11.20;90.40;;;;;;4986027;28;20509;-66
2023/04/06 01:57:18;;;;;;;4.70;3.40;;;11.20;90.40;;;;;;4980809;28;20482;-67
2023/04/06 02:00:16;;;;;;;4.47;3.00;;;11.20;90.40;;;;;;4983097;28;20501;-66
2023/04/06 02:02:52;;;;;;;3.73;3.43;;;11.20;90.40;;;;;;4990378;28;20445;-66
2023/04/06 02:05:26;;;;;;;3.90;3.30;;;11.20;90.40;;;;;;4986933;28;20912;-67
2023/04/06 02:07:56;;;;;;;3.60;3.30;;;11.20;90.40;;;;;;4989586;28;20516;-67
2023/04/06 02:10:36;;;;;;;4.40;3.50;;;11.20;90.40;;;;;;4985302;28;20477;-67
2023/04/06 02:13:12;;;;;;;4.33;3.10;;;11.20;90.30;;;;;;4975405;28;20438;-67
2023/04/06 02:15:46;;;;;;;4.23;2.77;;;11.20;90.40;;;;;;4989655;28;20483;-67
2023/04/06 02:18:15;;;;;;;3.60;3.10;;;11.20;90.40;;;;;;4982854;28;20447;-65
2023/04/06 02:20:44;;;;;;;3.87;3.10;;;11.20;90.40;;;;;;4977926;28;20493;-67
2023/04/06 02:23:12;;;;;;;4.17;3.40;;;11.20;90.50;;;;;;4982106;28;20430;-66
2023/04/06 02:25:42;;;;;;;3.87;3.00;;;11.20;90.50;;;;;;4988986;28;20876;-68
2023/04/06 02:28:11;;;;;;;3.87;2.70;;;11.20;90.40;;;;;;4981575;28;20427;-66
2023/04/06 02:30:39;;;;;;;3.80;3.40;;;11.10;90.40;;;;;;4985266;28;20553;-66
2023/04/06 02:33:08;;;;;;;3.57;2.60;;;11.10;90.50;;;;;;4981689;28;20445;-67
2023/04/06 02:35:46;;;;;;;3.70;3.30;;;11.10;90.50;;;;;;4982165;28;20478;-66
2023/04/06 02:38:14;;;;;;;3.83;3.03;;;11.10;90.40;;;;;;4981487;28;20443;-65
2023/04/06 02:40:44;;;;;;;4.40;3.70;;;11.10;90.40;;;;;;4988787;28;20465;-67
2023/04/06 02:43:20;;;;;;;3.30;3.00;;;11.10;90.40;;;;;;4987676;28;20496;-66
2023/04/06 02:45:53;;;;;;;4.90;3.17;;;11.10;90.50;;;;;;4986409;28;20484;-65
2023/04/06 02:48:25;;;;;;;4.63;2.97;;;11.10;90.50;;;;;;4988727;28;20438;-67
2023/04/06 02:50:54;;;;;;;4.40;3.13;;;11.10;90.40;;;;;;4981447;28;20489;-66
2023/04/06 02:53:23;;;;;;;2.97;2.60;;;11.10;90.40;;;;;;4989581;28;20789;-66
2023/04/06 02:55:52;;;;;;;4.50;3.27;;;11.10;90.50;;;;;;4998642;28;20474;-66
2023/04/06 02:58:21;;;;;;;4.40;3.03;;;11.10;90.40;;;;;;4989961;28;20461;-65
2023/04/06 03:00:54;;;;;;;5.10;3.20;;;11.10;90.40;;;;;;4988906;28;20454;-67
2023/04/06 03:03:22;;;;;;;3.57;2.90;;;11.10;90.40;;;;;;4987256;28;20444;-66
2023/04/06 03:05:51;;;;;;;3.20;2.50;;;11.00;90.40;;;;;;4983655;28;20481;-67
2023/04/06 03:08:26;;;;;;;4.47;3.10;;;11.00;90.40;;;;;;4981850;28;20622;-67
2023/04/06 03:10:56;;;;;;;3.33;2.63;;;11.10;90.40;;;;;;4982805;28;20577;-67
2023/04/06 03:13:33;;;;;;;3.60;3.30;;;11.00;90.40;;;;;;4981493;28;20450;-67
2023/04/06 03:16:01;;;;;;;3.93;2.97;;;11.00;90.40;;;;;;4987254;28;20458;-67
2023/04/06 03:18:30;;;;;;;3.10;2.73;;;11.00;90.30;;;;;;4986816;28;20497;-67
2023/04/06 03:21:00;;;;;;;4.10;3.03;;;11.00;90.40;;;;;;4985814;28;20925;-67
2023/04/06 03:23:50;;;;;;;3.30;2.67;;;11.00;90.40;;;;;;4988291;28;20465;-66
2023/04/06 03:26:22;;;;;;;3.80;2.93;;;11.00;90.50;;;;;;4967910;28;20475;-68
2023/04/06 03:28:52;;;;;;;4.30;3.20;;;11.00;90.50;;;;;;4982506;28;20552;-65
2023/04/06 03:31:25;;;;;;;3.77;3.37;;;11.00;90.50;;;;;;4984758;28;20622;-66
2023/04/06 03:34:06;;;;;;;4.17;2.63;;;11.00;90.50;;;;;;4995010;28;20438;-66
2023/04/06 03:36:36;;;;;;;3.57;2.70;;;11.00;90.40;;;;;;4981307;28;21207;-66
2023/04/06 03:39:06;;;;;;;3.77;3.20;;;11.00;90.40;;;;;;4970354;28;20482;-67
2023/04/06 03:41:41;;;;;;;2.83;2.27;;;11.00;90.40;;;;;;4999421;28;20499;-67
2023/04/06 03:44:31;;;;;;;5.10;3.20;;;11.00;90.40;;;;;;4984395;28;20954;-66
2023/04/06 03:47:00;;;;;;;3.83;2.83;;;11.00;90.50;;;;;;4981577;28;20480;-67
2023/04/06 03:49:28;;;;;;;3.63;2.50;;;10.90;90.40;;;;;;4977608;28;20459;-66
2023/04/06 03:51:58;;;;;;;3.83;2.83;;;11.00;90.50;;;;;;4970100;28;20469;-67
2023/04/06 03:54:26;;;;;;;3.50;2.90;;;10.90;90.40;;;;;;4981670;28;21013;-67
2023/04/06 03:56:56;;;;;;;3.30;3.00;;;10.90;90.50;;;;;;4976089;28;20478;-67
2023/04/06 03:59:27;;;;;;;3.33;2.87;;;10.90;90.50;;;;;;4979161;28;20465;-66
2023/04/06 04:01:56;;;;;;;3.00;2.70;;;10.90;90.50;;;;;;4974710;28;20755;-66
2023/04/06 04:04:24;;;;;;;3.53;2.93;;;10.90;90.60;;;;;;4979627;28;20454;-66
2023/04/06 04:06:52;;;;;;;3.17;2.50;;;10.90;90.60;;;;;;4982567;28;20523;-67
2023/04/06 04:09:21;;;;;;;4.17;2.90;;;10.90;90.60;;;;;;4983933;28;20916;-67
2023/04/06 04:11:51;;;;;;;3.13;2.73;;;10.90;90.50;;;;;;4979856;28;20490;-66
2023/04/06 04:14:22;;;;;;;4.23;3.30;;;10.90;90.60;;;;;;4980945;28;20466;-65
2023/04/06 04:16:51;;;;;;;4.10;3.40;;;10.90;90.60;;;;;;4981630;28;21010;-67
2023/04/06 04:19:19;;;;;;;4.07;3.60;;;10.90;90.60;;;;;;4981342;28;20465;-66
2023/04/06 04:21:49;;;;;;;4.77;3.17;;;10.90;90.60;;;;;;4978943;28;20467;-66
2023/04/06 04:24:22;;;;;;;3.87;3.37;;;10.90;90.60;;;;;;4981502;28;20457;-66
2023/04/06 04:26:51;;;;;;;3.67;3.07;;;10.90;90.60;;;;;;4998868;28;20478;-66
2023/04/06 04:29:22;;;;;;;3.53;2.97;;;10.90;90.60;;;;;;4978717;28;21005;-66
2023/04/06 04:31:52;;;;;;;3.80;3.40;;;10.80;90.60;;;;;;4968918;28;20852;-64
2023/04/06 04:34:23;;;;;;;4.17;3.37;;;10.80;90.60;;;;;;4984140;28;20859;-65
2023/04/06 04:36:52;;;;;;;3.03;2.73;;;10.80;90.60;;;;;;4976840;28;20525;-66
2023/04/06 04:39:30;;;;;;;3.47;3.17;;;10.80;90.70;;;;;;4980448;28;20850;-67
2023/04/06 04:42:04;;;;;;;5.87;3.30;;;10.80;90.70;;;;;;4976056;28;20482;-66
2023/04/06 04:44:36;;;;;;;3.03;2.70;;;10.80;90.60;;;;;;4979470;28;20466;-65
2023/04/06 04:47:06;;;;;;;4.50;3.47;;;10.80;90.80;;;;;;4981202;28;20559;-65
2023/04/06 04:49:42;;;;;;;3.67;2.47;;;10.80;90.70;;;;;;4986507;28;20484;-65
2023/04/06 04:52:13;;;;;;;3.97;3.57;;;10.80;90.80;;;;;;4985084;28;20512;-65
2023/04/06 04:55:00;;;;;;;3.60;2.97;;;10.80;90.80;;;;;;4986609;28;20521;-66
2023/04/06 04:57:30;;;;;;;3.63;3.20;;;10.80;90.80;;;;;;4978698;28;20484;-66
2023/04/06 05:00:01;;;;;;;3.80;3.20;;;10.80;90.90;;;;;;4979830;28;20471;-66
2023/04/06 05:02:30;;;;;;;3.07;2.77;;;10.80;90.90;;;;;;4980802;28;20466;-67
2023/04/06 05:05:34;;;;;;;3.23;2.87;;;10.80;90.90;;;;;;4975579;28;20963;-66
2023/04/06 05:08:05;;;;;;;3.33;2.70;;;10.80;90.90;;;;;;4986357;28;20478;-66
2023/04/06 05:10:46;;;;;;;3.73;3.17;;;10.70;90.90;;;;;;4980577;28;20897;-66
2023/04/06 05:13:15;;;;;;;3.50;3.20;;;10.80;91.00;;;;;;4986659;28;20433;-67
2023/04/06 05:15:46;;;;;;;3.07;2.70;;;10.70;90.90;;;;;;4964531;28;20491;-65
2023/04/06 05:18:24;;;;;;;3.77;3.10;;;10.70;91.00;;;;;;4977981;28;20435;-66
2023/04/06 05:20:52;;;;;;;4.03;3.37;;;10.80;91.00;;;;;;4977076;28;20443;-67
2023/04/06 05:23:27;;;;;;;3.07;2.77;;;10.70;91.00;;;;;;4980597;28;20453;-67
2023/04/06 05:25:56;;;;;;;4.27;3.40;;;10.70;90.90;;;;;;4981250;28;20452;-66
2023/04/06 05:28:24;;;;;;;3.87;3.47;;;10.70;91.00;;;;;;4970154;28;20633;-67
2023/04/06 05:30:54;;;;;;;4.17;3.10;;;10.70;91.00;;;;;;4978868;28;20462;-65
2023/04/06 05:33:23;;;;;;;3.80;2.87;;;10.70;91.00;;;;;;4985432;28;20838;-66
2023/04/06 05:36:03;;;;;;;3.30;2.90;;;10.70;91.10;;;;;;4982688;28;20489;-66
2023/04/06 05:38:33;;;;;;;3.30;2.60;;;10.70;90.90;;;;;;4985577;28;20922;-67
2023/04/06 05:41:10;;;;;;;4.30;3.17;;;10.70;91.10;;;;;;4992963;28;20797;-67
2023/04/06 05:43:40;;;;;;;4.53;3.33;;;10.70;90.80;;;;;;4981300;28;20794;-66
2023/04/06 05:46:10;;;;;;;4.20;3.10;;;10.70;91.00;;;;;;4986595;28;20493;-75
2023/04/06 05:48:39;;;;;;;2.90;2.60;;;10.70;91.10;;;;;;5004638;28;20488;-75
2023/04/06 05:51:08;;;;;;;3.20;2.63;;;10.60;91.00;;;;;;4982478;28;20467;-74
2023/04/06 05:53:46;;;;;;;3.83;2.97;;;10.70;91.10;;;;;;4975759;28;20449;-75
2023/04/06 05:56:14;;;;;;;3.07;2.60;;;10.60;91.10;;;;;;4986580;28;20459;-75
2023/04/06 05:58:44;;;;;;;2.80;2.37;;;10.60;91.10;;;;;;4988398;28;20512;-72
2023/04/06 06:01:17;;;;;;;4.00;2.87;;;10.60;91.20;;;;;;4986813;28;20663;-74
2023/04/06 06:03:48;;;;;;;2.73;2.37;;;10.70;91.20;;;;;;4989771;28;20971;-74
2023/04/06 06:06:17;;;;;;;3.67;3.20;;;10.60;91.20;;;;;;4980380;28;20471;-74
2023/04/06 06:09:06;;;;;;;3.13;2.60;;;10.60;91.20;;;;;;4981047;28;20473;-73
2023/04/06 06:11:42;;;;;;;3.70;3.27;;;10.60;91.20;;;;;;4980843;28;20928;-73
2023/04/06 06:14:13;;;;;;;4.47;3.93;;;10.60;91.20;;;;;;4982740;28;20493;-75
2023/04/06 06:16:44;;;;;;;3.20;2.53;;;10.60;90.90;;;;;;4977169;28;20482;-73
2023/04/06 06:19:15;;;;;;;3.97;3.27;;;10.60;91.20;;;;;;4980597;28;20908;-73
2023/04/06 06:21:45;;;;;;;3.20;2.90;;;10.60;91.10;;;;;;4979767;28;20477;-73
2023/04/06 06:24:15;;;;;;;4.30;2.90;;;10.60;91.30;;;;;;4981834;28;21048;-73
2023/04/06 06:26:44;;;;;;;4.63;3.67;;;10.60;91.30;;;;;;4990556;28;20512;-73
2023/04/06 06:29:14;;;;;;;3.50;2.77;;;10.60;90.90;;;;;;4979246;28;20470;-73
2023/04/06 06:31:45;;;;;;;5.53;4.10;;;10.60;91.40;;;;;;4980815;28;20509;-73
2023/04/06 06:34:13;;;;;;;2.60;2.40;;;10.60;91.00;;;;;;4985929;28;20522;-73
2023/04/06 06:36:43;;;;;;;3.57;2.90;;;10.60;91.20;;;;;;4983077;28;20470;-74
2023/04/06 06:39:15;;;;;;;3.90;3.00;;;10.60;91.30;;;;;;4977079;28;20529;-73
2023/04/06 06:41:44;;;;;;;3.10;2.20;;;10.60;91.60;;;;;;5000611;28;20477;-73
2023/04/06 06:44:13;;;;;;;6.60;3.23;;;10.60;91.30;;;;;;4984099;28;20460;-73
2023/04/06 06:46:41;;;;;;;3.13;2.30;;;10.60;91.30;;;;;;4985353;28;20524;-74
2023/04/06 06:49:12;;;;;;;3.50;3.10;;;10.50;91.50;;;;;;4996736;28;21006;-73
2023/04/06 06:51:40;;;;;;;3.83;3.30;;;10.60;91.30;;;;;;4983516;28;20473;-73
2023/04/06 06:54:09;;;;;;;3.50;2.97;;;10.50;91.60;;;;;;4980511;28;20461;-74
2023/04/06 06:56:38;;;;;;;6.03;4.07;;;10.60;91.50;;;;;;4962959;28;20478;-74
2023/04/06 06:59:07;;;;;;;3.80;3.07;;;10.60;91.20;;;;;;4983192;28;20868;-72
2023/04/06 07:01:38;;;;;;;6.57;4.87;;;10.60;91.50;;;;;;4983211;28;20988;-74
2023/04/06 07:04:08;;;;;;;7.53;5.10;;;10.60;90.80;;;;;;4984168;28;20804;-73
2023/04/06 07:06:39;;;;;;;6.57;4.50;;;10.60;88.60;;;;;;4978231;28;20572;-73
2023/04/06 07:09:07;;;;;;;6.30;3.93;;;10.60;87.30;;;;;;4985214;28;20561;-74
2023/04/06 07:11:36;;;;;;;3.63;2.70;;;10.60;89.10;;;;;;4969634;28;20843;-73
2023/04/06 07:14:06;;;;;;;6.17;5.00;;;10.60;90.00;;;;;;4982073;28;20532;-73
2023/04/06 07:16:36;;;;;;;6.67;4.60;;;10.60;88.10;;;;;;4980367;28;20492;-73
2023/04/06 07:19:05;;;;;;;5.67;4.40;;;10.60;88.50;;;;;;4983878;28;20465;-74
2023/04/06 07:21:35;;;;;;;5.80;4.13;;;10.60;88.30;;;;;;4986963;28;20462;-73
2023/04/06 07:24:05;;;;;;;7.90;4.30;;;10.60;88.20;;;;;;4985730;28;20514;-73
2023/04/06 07:26:34;;;;;;;5.70;4.70;;;10.60;89.10;;;;;;4981819;28;21060;-73
2023/04/06 07:29:05;;;;;;;7.00;4.70;;;10.60;89.10;;;;;;4976646;28;20876;-73
2023/04/06 07:31:35;;;;;;;7.20;4.93;;;10.60;88.10;;;;;;4973229;28;20477;-73
2023/04/06 07:34:05;;;;;;;8.50;4.80;;;10.60;88.90;;;;;;4978584;28;20477;-73
2023/04/06 07:36:34;;;;;;;6.73;4.40;;;10.60;88.40;;;;;;4986413;28;20549;-73
2023/04/06 07:39:02;;;;;;;6.47;4.50;;;10.60;89.10;;;;;;4987256;28;20443;-73
2023/04/06 07:41:33;;;;;;;12.07;5.03;;;10.60;88.90;;;;;;4978038;28;20496;-73
2023/04/06 07:44:02;;;;;;;4.73;4.20;;;10.60;88.70;;;;;;4985461;28;20449;-74
2023/04/06 07:46:31;;;;;;;3.53;3.23;;;10.60;89.90;;;;;;4982916;28;20927;-73
2023/04/06 07:49:01;;;;;;;6.07;4.47;;;10.60;90.20;;;;;;4985837;28;20474;-74
2023/04/06 07:51:33;;;;;;;4.57;3.30;;;10.60;90.00;;;;;;5002492;28;20464;-73
2023/04/06 07:54:02;;;;;;;6.60;4.70;;;10.60;90.50;;;;;;4980284;28;20459;-72
2023/04/06 07:56:32;;;;;;;4.30;3.90;;;10.60;90.20;;;;;;4997288;28;20774;-74
2023/04/06 07:59:00;;;;;;;7.57;5.63;;;10.60;90.20;;;;;;4984714;28;20993;-73
2023/04/06 08:01:29;;;;;;;5.87;4.33;;;10.60;90.00;;;;;;4983435;28;20548;-73
2023/04/06 08:04:01;;;;;;;6.27;4.40;;;10.60;90.20;;;;;;4986103;28;20460;-73
2023/04/06 08:06:30;;;;;;;7.17;5.13;;;10.60;90.10;;;;;;4984592;28;20470;-73
2023/04/06 08:08:59;;;;;;;5.70;4.13;;;10.60;90.30;;;;;;4978421;28;20470;-73
2023/04/06 08:11:27;;;;;;;5.43;3.33;;;10.60;90.80;;;;;;4973397;28;20487;-73
2023/04/06 08:13:57;;;;;;;5.20;4.10;;;10.60;90.90;;;;;;4973763;28;20473;-74
2023/04/06 08:16:26;;;;;;;5.73;3.37;;;10.60;90.60;;;;;;4978090;28;20485;-74
2023/04/06 08:18:56;;;;;;;6.00;4.10;;;10.60;90.80;;;;;;4997434;28;20565;-74
2023/04/06 08:21:25;;;;;;;5.07;4.10;;;10.60;91.00;;;;;;4985791;28;20478;-73
2023/04/06 08:23:53;;;;;;;5.10;3.10;;;10.50;91.00;;;;;;4979314;28;20445;-73
2023/04/06 08:26:22;;;;;;;3.57;3.27;;;10.50;91.00;;;;;;4984643;28;20845;-73
2023/04/06 08:28:50;;;;;;;4.00;2.93;;;10.60;91.10;;;;;;4979723;28;20987;-73
2023/04/06 08:31:20;;;;;;;4.43;3.40;;;10.60;91.10;;;;;;4978980;28;20510;-73
2023/04/06 08:33:50;;;;;;;4.33;3.50;;;10.50;91.20;;;;;;4982679;28;20449;-74
2023/04/06 08:36:22;;;;;;;3.70;2.87;;;10.50;91.20;;;;;;4979098;28;20840;-73
2023/04/06 08:38:53;;;;;;;4.10;3.37;;;10.50;91.30;;;;;;4998225;28;20506;-73
2023/04/06 08:41:22;;;;;;;4.43;3.17;;;10.60;91.20;;;;;;4982924;28;20834;-73
2023/04/06 08:43:57;;;;;;;4.63;3.40;;;10.50;91.20;;;;;;4984431;28;20462;-73
2023/04/06 08:46:30;;;;;;;3.60;2.90;;;10.50;91.20;;;;;;4972883;28;20497;-73
2023/04/06 08:49:00;;;;;;;4.50;3.53;;;10.50;91.30;;;;;;4993967;28;20512;-73
2023/04/06 08:51:31;;;;;;;4.80;3.33;;;10.50;91.40;;;;;;4985006;28;20828;-74
2023/04/06 08:54:01;;;;;;;4.23;2.50;;;10.50;91.40;;;;;;4975784;28;20504;-73
2023/04/06 08:56:29;;;;;;;4.80;3.23;;;10.50;91.40;;;;;;4996635;28;20533;-73
2023/04/06 08:58:58;;;;;;;4.33;3.20;;;10.50;91.30;;;;;;4985261;28;20460;-66
2023/04/06 09:01:30;;;;;;;4.60;2.73;;;10.50;91.40;;;;;;4981530;28;20568;-67
2023/04/06 09:04:00;;;;;;;4.50;2.93;;;10.50;91.30;;;;;;4994791;28;20434;-67
2023/04/06 09:06:30;;;;;;;3.20;2.67;;;10.50;91.40;;;;;;4983437;28;20476;-66
2023/04/06 09:08:59;;;;;;;4.00;3.07;;;10.50;91.30;;;;;;4985362;28;20887;-65
2023/04/06 09:11:28;;;;;;;3.93;3.33;;;10.50;91.40;;;;;;4979242;28;20486;-65
2023/04/06 09:13:58;;;;;;;3.83;3.20;;;10.50;91.40;;;;;;4988953;28;20455;-65
2023/04/06 09:16:28;;;;;;;3.97;3.33;;;10.50;91.30;;;;;;4985726;28;20980;-67
2023/04/06 09:19:05;;;;;;;3.00;2.43;;;10.50;91.30;;;;;;4986766;28;20457;-66
2023/04/06 09:21:35;;;;;;;3.90;2.83;;;10.50;91.50;;;;;;4974109;28;20478;-67
2023/04/06 09:24:05;;;;;;;5.37;2.97;;;10.50;91.40;;;;;;4982751;28;20542;-66
2023/04/06 09:26:46;;;;;;;4.03;2.60;;;10.50;91.40;;;;;;4981051;28;20463;-66
2023/04/06 09:29:26;;;;;;;3.17;2.87;;;10.50;91.30;;;;;;4981573;28;20887;-67
2023/04/06 09:32:05;;;;;;;4.20;3.50;;;10.50;91.40;;;;;;4969728;28;20870;-66
2023/04/06 09:34:35;;;;;;;3.57;2.70;;;10.50;91.20;;;;;;4984619;28;20517;-65
2023/04/06 09:37:14;;;;;;;3.40;2.90;;;10.50;91.30;;;;;;4986442;28;20569;-67
2023/04/06 09:39:42;;;;;;;3.43;2.70;;;10.50;91.30;;;;;;4995370;28;20548;-67
2023/04/06 09:42:24;;;;;;;3.43;2.70;;;10.50;91.30;;;;;;4995855;28;20481;-66
2023/04/06 09:44:53;;;;;;;3.70;3.30;;;10.50;91.30;;;;;;5003012;28;20507;-66
2023/04/06 09:47:26;;;;;;;3.00;2.50;;;10.50;91.20;;;;;;4980884;28;20464;-66
2023/04/06 09:49:58;;;;;;;4.43;3.03;;;10.50;91.40;;;;;;4984189;28;20888;-65
2023/04/06 09:52:28;;;;;;;3.23;2.40;;;10.50;91.30;;;;;;4977638;28;20490;-65
2023/04/06 09:55:00;;;;;;;5.17;3.10;;;10.50;91.50;;;;;;4985950;28;20504;-66
2023/04/06 09:57:35;;;;;;;3.23;2.93;;;10.50;91.40;;;;;;4983699;28;20982;-66
2023/04/06 10:00:09;;;;;;;6.43;3.27;;;10.50;91.40;;;;;;4982143;28;20476;-66
2023/04/06 10:02:50;;;;;;;3.47;2.70;;;10.50;91.50;;;;;;4983962;28;20450;-66
2023/04/06 10:05:28;;;;;;;3.87;2.97;;;10.50;91.50;;;;;;4976683;28;20581;-66
2023/04/06 10:08:00;;;;;;;3.43;2.83;;;10.50;91.40;;;;;;4987634;28;20472;-66
2023/04/06 10:10:30;;;;;;;3.20;2.80;;;10.50;91.40;;;;;;4985035;28;20494;-66
2023/04/06 10:12:59;;;;;;;4.03;3.20;;;10.50;91.40;;;;;;4988911;28;20446;-66
2023/04/06 10:15:30;;;;;;;4.23;2.90;;;10.50;91.40;;;;;;4984461;28;20469;-65
2023/04/06 10:18:00;;;;;;;2.93;2.63;;;10.50;91.40;;;;;;4979279;28;20454;-65
2023/04/06 10:20:34;;;;;;;4.33;3.07;;;10.50;91.40;;;;;;4979615;28;20458;-66
2023/04/06 10:23:09;;;;;;;3.60;2.90;;;10.50;91.30;;;;;;4987049;28;20807;-66
2023/04/06 10:25:37;;;;;;;3.40;2.90;;;10.50;91.30;;;;;;4985103;28;20568;-67
2023/04/06 10:28:07;;;;;;;4.20;2.97;;;10.50;91.40;;;;;;4974274;28;20766;-65
2023/04/06 10:30:36;;;;;;;3.83;2.80;;;10.50;91.30;;;;;;4985010;28;21000;-65
2023/04/06 10:33:16;;;;;;;4.40;3.20;;;10.50;91.30;;;;;;4975803;28;20447;-66
2023/04/06 10:35:44;;;;;;;3.50;3.13;;;10.50;91.30;;;;;;4987400;28;20906;-65
2023/04/06 10:38:14;;;;;;;4.30;3.47;;;10.50;91.30;;;;;;4980629;28;20820;-67
2023/04/06 10:40:44;;;;;;;4.00;3.60;;;10.50;91.10;;;;;;4977437;28;20461;-65
2023/04/06 10:43:15;;;;;;;5.33;2.60;;;10.50;91.30;;;;;;4975405;28;20449;-66
2023/04/06 10:45:45;;;;;;;3.90;2.97;;;10.50;91.30;;;;;;4987622;28;20471;-66
2023/04/06 10:48:19;;;;;;;5.20;3.10;;;10.50;91.30;;;;;;4977428;28;20446;-66
2023/04/06 10:50:50;;;;;;;3.47;3.00;;;10.50;91.30;;;;;;4987779;28;20913;-65
2023/04/06 10:53:22;;;;;;;3.50;3.13;;;10.50;91.30;;;;;;4976992;28;20446;-65
2023/04/06 10:55:52;;;;;;;3.73;2.97;;;10.50;91.30;;;;;;4981374;28;21085;-66
2023/04/06 10:58:21;;;;;;;5.70;4.03;;;10.50;91.30;;;;;;4986645;28;20894;-73
2023/04/06 11:00:50;;;;;;;4.87;3.37;;;10.50;91.20;;;;;;4987612;28;20526;-73
2023/04/06 11:03:20;;;;;;;5.70;3.50;;;10.50;91.30;;;;;;4968214;28;20448;-73
2023/04/06 11:05:51;;;;;;;4.60;3.43;;;10.50;91.20;;;;;;4988624;28;20480;-73
2023/04/06 11:08:31;;;;;;;3.70;2.87;;;10.50;91.40;;;;;;4981387;28;20442;-74
2023/04/06 11:11:07;;;;;;;5.07;3.17;;;10.50;91.40;;;;;;5000399;28;20472;-73
2023/04/06 11:13:41;;;;;;;5.23;3.93;;;10.50;91.40;;;;;;4987747;28;20450;-73
2023/04/06 11:16:14;;;;;;;3.40;3.07;;;10.50;91.30;;;;;;4995398;28;20571;-73
2023/04/06 11:18:55;;;;;;;3.10;2.67;;;10.50;91.40;;;;;;4980941;28;20922;-73
2023/04/06 11:21:35;;;;;;;3.70;2.70;;;10.50;91.40;;;;;;4978059;28;20876;-74
2023/04/06 11:24:08;;;;;;;4.03;3.27;;;10.50;91.50;;;;;;4970342;28;20438;-73
2023/04/06 11:26:46;;;;;;;3.30;2.53;;;10.60;91.60;;;;;;4985196;28;20553;-73
2023/04/06 11:29:17;;;;;;;5.30;3.37;;;10.50;91.50;;;;;;4980929;28;20480;-73
2023/04/06 11:31:47;;;;;;;3.93;2.60;;;10.50;91.50;;;;;;4983304;28;20545;-73
2023/04/06 11:34:20;;;;;;;3.00;2.63;;;10.50;91.50;;;;;;4971914;28;20530;-72
2023/04/06 11:36:50;;;;;;;6.00;2.67;;;10.50;91.60;;;;;;4980813;28;20477;-74
2023/04/06 11:39:21;;;;;;;4.07;3.07;;;10.50;91.60;;;;;;4979859;28;20584;-73
2023/04/06 11:41:50;;;;;;;3.20;2.50;;;10.50;91.80;;;;;;4985776;28;20474;-73
2023/04/06 11:44:30;;;;;;;3.30;3.00;;;10.50;91.60;;;;;;4986168;28;20544;-73
2023/04/06 11:46:59;;;;;;;3.90;3.33;;;10.50;91.90;;;;;;4980158;28;20626;-73
2023/04/06 11:49:29;;;;;;;5.40;3.40;;;10.50;91.50;;;;;;4979967;28;20502;-73
2023/04/06 11:51:59;;;;;;;4.63;2.80;;;10.50;91.40;;;;;;4977370;28;20483;-73
2023/04/06 11:54:34;;;;;;;3.70;2.77;;;10.50;90.70;;;;;;4976001;28;20492;-73
2023/04/06 11:57:03;;;;;;;4.03;2.90;;;10.50;90.50;;;;;;4978331;28;20467;-73
2023/04/06 11:59:32;;;;;;;4.07;3.00;;;10.50;90.50;;;;;;4978026;28;20553;-73
2023/04/06 12:02:02;;;;;;;4.37;3.10;;;10.60;90.20;;;;;;4978455;28;21024;-73
2023/04/06 12:04:32;;;;;;;6.20;3.27;;;10.60;90.50;;;;;;4980351;28;20454;-74
2023/04/06 12:07:00;;;;;;;4.30;3.30;;;10.60;89.20;;;;;;4962045;28;20615;-73
2023/04/06 12:09:30;;;;;;;3.47;2.67;;;10.60;90.30;;;;;;4984482;28;20489;-74
2023/04/06 12:11:59;;;;;;;3.70;3.00;;;10.60;90.00;;;;;;4979955;28;20610;-73
2023/04/06 12:14:27;;;;;;;4.50;2.80;;;10.60;90.40;;;;;;5003561;28;20433;-73
2023/04/06 12:16:56;;;;;;;5.33;3.60;;;10.60;90.00;;;;;;4987101;28;20501;-74
2023/04/06 12:19:25;;;;;;;5.70;4.00;;;10.60;85.60;;;;;;4976724;28;21005;-73
2023/04/06 12:21:56;;;;;;;8.47;5.80;;;10.60;85.70;;;;;;4977983;28;20487;-72
2023/04/06 12:24:24;;;;;;;6.53;4.77;;;10.60;84.00;;;;;;4985549;28;20533;-65
2023/04/06 12:26:53;;;;;;;8.17;5.63;;;10.70;84.00;;;;;;4982131;28;20482;-66
2023/04/06 12:29:37;;;;;;;9.43;5.93;;;10.70;84.40;;;;;;4978586;28;20447;-65
2023/04/06 12:32:06;;;;;;;8.23;5.67;;;10.70;84.00;;;;;;4980879;28;20466;-66
2023/04/06 12:34:35;;;;;;;7.90;5.20;;;10.60;83.90;;;;;;4981440;28;20469;-65
2023/04/06 12:37:05;;;;;;;6.60;5.33;;;10.60;84.60;;;;;;4982065;28;20470;-65
2023/04/06 12:39:36;;;;;;;8.90;5.43;;;10.60;84.10;;;;;;4974007;28;20443;-66
2023/04/06 12:42:04;;;;;;;10.43;6.00;;;10.60;84.90;;;;;;4979325;28;20470;-66
2023/04/06 12:44:33;;;;;;;9.17;5.20;;;10.60;85.40;;;;;;4977831;28;20476;-65
2023/04/06 12:47:02;;;;;;;7.07;5.90;;;10.60;86.10;;;;;;4974649;28;21075;-65
2023/04/06 12:49:31;;;;;;;7.63;5.30;;;10.60;86.50;;;;;;4978397;28;21073;-65
2023/04/06 12:51:59;;;;;;;5.00;4.10;;;10.60;87.50;;;;;;4983393;28;20962;-65
2023/04/06 12:54:30;;;;;;;6.40;4.70;;;10.60;88.00;;;;;;5000348;28;20439;-65
2023/04/06 12:56:58;;;;;;;5.97;4.50;;;10.60;88.60;;;;;;4980385;28;20897;-66
2023/04/06 12:59:26;;;;;;;6.40;3.80;;;10.60;89.10;;;;;;4971350;28;20817;-66
2023/04/06 13:01:55;;;;;;;5.80;4.10;;;10.60;89.60;;;;;;4998564;28;20486;-65
2023/04/06 13:04:24;;;;;;;7.57;5.57;;;10.60;89.60;;;;;;4983090;28;20450;-66
2023/04/06 13:06:52;;;;;;;4.80;4.30;;;10.60;89.30;;;;;;4986171;28;20799;-66
2023/04/06 13:09:21;;;;;;;5.30;4.10;;;10.60;89.70;;;;;;5001165;28;20471;-66